Time;durP1;ratioP1;P1;durP2;ratioP2;P2;SDS_P1;SDS_P2;PMS_P1;PMS_P2;Temp;Humidity;BMP_temperature;BMP_pressure;BME280_temperature;BME280_humidity;BME280_pressure;Samples;Min_cycle;Max_cycle;Signal;HPM_P1;HPM_P2
2021/09/22 00:00:22;;;;;;;13.15;7.78;;;;;;;10.18;90.10;101522.88;5056719;28;20082;-68
2021/09/22 00:02:49;;;;;;;11.07;6.90;;;;;;;10.11;90.69;101516.03;5057419;28;20037;-68
2021/09/22 00:05:17;;;;;;;13.75;7.35;;;;;;;10.05;90.62;101513.59;5057485;28;20052;-68
2021/09/22 00:07:44;;;;;;;12.10;7.53;;;;;;;9.97;91.17;101521.03;5056087;28;20500;-67
2021/09/22 00:10:15;;;;;;;12.30;7.05;;;;;;;9.95;91.55;101513.06;5039266;28;20046;-68
2021/09/22 00:12:42;;;;;;;;;;;;;;;10.01;91.11;101510.19;5037712;28;20045;-68
2021/09/22 00:15:11;;;;;;;13.02;7.60;;;;;;;10.01;91.14;101518.19;5036281;28;19925;-68
2021/09/22 00:17:40;;;;;;;11.25;7.03;;;;;;;10.03;91.00;101510.97;5036058;28;20081;-67
2021/09/22 00:20:09;;;;;;;11.95;8.10;;;;;;;10.03;91.19;101512.78;5020051;28;20072;-67
2021/09/22 00:22:36;;;;;;;11.18;7.35;;;;;;;9.96;91.48;101513.97;5037110;28;20144;-67
2021/09/22 00:25:04;;;;;;;15.10;7.38;;;;;;;9.95;91.11;101507.72;5037097;28;20041;-67
2021/09/22 00:27:31;;;;;;;13.43;7.65;;;;;;;9.96;91.45;101503.28;5037016;28;20053;-67
2021/09/22 00:29:59;;;;;;;11.93;7.65;;;;;;;9.99;91.20;101501.38;5037046;28;20111;-68
2021/09/22 00:32:26;;;;;;;14.35;7.75;;;;;;;9.96;91.42;101508.63;5035676;28;20065;-67
2021/09/22 00:34:53;;;;;;;11.55;7.60;;;;;;;9.96;91.28;101501.47;5062171;28;20053;-67
2021/09/22 00:37:20;;;;;;;12.02;7.40;;;;;;;9.92;91.50;101497.19;5056607;28;20555;-67
2021/09/22 00:39:47;;;;;;;14.65;7.20;;;;;;;9.91;91.36;101506.97;5055594;28;20362;-66
2021/09/22 00:42:14;;;;;;;13.35;7.43;;;;;;;9.87;91.55;101499.16;5055370;28;20045;-67
2021/09/22 00:44:55;;;;;;;11.60;7.88;;;;;;;9.84;91.69;101496.56;5056722;28;20049;-68
2021/09/22 00:47:24;;;;;;;12.52;6.97;;;;;;;9.82;91.60;101502.00;5055359;28;20098;-67
2021/09/22 00:49:51;;;;;;;10.90;6.70;;;;;;;9.82;91.90;101502.00;5055332;28;20127;-67
2021/09/22 00:52:20;;;;;;;10.18;7.53;;;;;;;9.75;92.12;101506.66;5055268;28;20091;-69
2021/09/22 00:54:48;;;;;;;12.38;8.05;;;;;;;9.80;92.00;101494.97;5055658;28;20055;-68
2021/09/22 00:57:16;;;;;;;12.13;7.65;;;;;;;9.78;91.90;101503.91;5055226;28;20060;-67
2021/09/22 00:59:44;;;;;;;13.43;7.40;;;;;;;9.80;91.76;101506.50;5071849;28;20128;-67
2021/09/22 01:02:12;;;;;;;10.18;6.97;;;;;;;9.71;92.31;101506.84;5054967;28;20075;-68
2021/09/22 01:04:39;;;;;;;11.68;7.65;;;;;;;9.64;92.81;101511.50;5056301;28;20037;-68
2021/09/22 01:07:08;;;;;;;10.05;6.97;;;;;;;9.67;92.63;101514.06;5055020;28;20045;-67
2021/09/22 01:09:37;;;;;;;12.95;7.25;;;;;;;9.67;92.27;101507.84;5043378;28;20055;-67
2021/09/22 01:12:05;;;;;;;13.00;7.43;;;;;;;9.62;92.98;101518.69;5036092;28;20045;-66
2021/09/22 01:14:32;;;;;;;15.70;7.35;;;;;;;9.70;92.54;101521.09;5035267;28;20049;-67
2021/09/22 01:16:59;;;;;;;14.15;7.97;;;;;;;9.57;93.21;101524.19;5035873;28;20427;-67
2021/09/22 01:19:27;;;;;;;11.18;7.22;;;;;;;9.58;92.69;101525.91;5036123;28;20053;-67
2021/09/22 01:21:56;;;;;;;14.18;8.60;;;;;;;9.62;92.36;101532.91;5034281;28;20057;-67
2021/09/22 01:24:34;;;;;;;11.65;7.60;;;;;;;9.63;92.61;101523.97;5034890;28;20045;-67
2021/09/22 01:27:01;;;;;;;14.10;7.47;;;;;;;9.60;92.62;101524.06;5035791;28;20058;-69
2021/09/22 01:29:28;;;;;;;15.40;7.53;;;;;;;9.50;93.16;101522.66;5034850;28;20351;-67
2021/09/22 01:31:57;;;;;;;16.23;8.65;;;;;;;9.54;92.34;101516.31;5034507;28;20442;-66
2021/09/22 01:34:24;;;;;;;11.82;7.22;;;;;;;9.56;92.68;101522.44;5040883;28;20053;-66
2021/09/22 01:37:02;;;;;;;13.20;7.68;;;;;;;9.50;92.90;101517.31;5054537;28;20103;-66
2021/09/22 01:39:46;;;;;;;12.57;7.78;;;;;;;9.45;93.15;101519.28;5054526;28;20067;-68
2021/09/22 01:42:15;;;;;;;11.32;7.82;;;;;;;9.37;93.65;101517.75;5054161;28;20392;-68
2021/09/22 01:44:43;;;;;;;13.88;8.00;;;;;;;9.47;93.51;101514.75;5054386;28;20053;-68
2021/09/22 01:47:20;;;;;;;16.40;8.63;;;;;;;9.44;93.21;101517.53;5054158;28;20064;-68
2021/09/22 01:50:04;;;;;;;12.68;7.30;;;;;;;9.46;93.17;101521.00;5054360;28;20144;-68
2021/09/22 01:52:35;;;;;;;12.88;7.40;;;;;;;9.52;92.86;101520.81;5054269;28;20139;-68
2021/09/22 01:55:14;;;;;;;12.95;6.97;;;;;;;9.45;93.36;101522.81;5071017;28;20061;-68
2021/09/22 01:57:43;;;;;;;12.23;8.02;;;;;;;9.41;93.72;101513.19;5054392;28;20075;-68
2021/09/22 02:00:15;;;;;;;11.77;7.93;;;;;;;9.37;93.85;101511.53;5054127;28;20055;-68
2021/09/22 02:02:46;;;;;;;12.18;7.18;;;;;;;9.40;93.55;101505.22;5054572;28;20045;-68
2021/09/22 02:05:21;;;;;;;12.55;8.05;;;;;;;9.31;94.29;101501.09;5054049;28;20049;-68
2021/09/22 02:07:57;;;;;;;12.20;7.50;;;;;;;9.36;94.03;101502.69;5053889;28;20052;-68
2021/09/22 02:10:26;;;;;;;12.15;7.75;;;;;;;9.31;94.15;101495.78;5050716;28;20473;-68
2021/09/22 02:12:53;;;;;;;14.98;7.35;;;;;;;9.30;94.00;101496.69;5034936;28;20045;-69
2021/09/22 02:15:21;;;;;;;13.77;7.90;;;;;;;9.30;94.23;101494.91;5034001;28;20077;-68
2021/09/22 02:18:18;;;;;;;11.05;7.43;;;;;;;9.26;94.21;101509.22;5034405;28;20053;-67
2021/09/22 02:20:47;;;;;;;11.13;7.68;;;;;;;9.20;94.30;101494.34;5060030;28;20080;-67
2021/09/22 02:23:21;;;;;;;11.88;7.60;;;;;;;9.28;94.00;101493.22;5030445;28;20088;-69
2021/09/22 02:25:51;;;;;;;15.43;7.25;;;;;;;9.22;94.20;101488.97;5020206;28;20069;-67
2021/09/22 02:28:19;;;;;;;14.68;7.57;;;;;;;9.21;94.01;101480.09;5053470;28;20056;-67
2021/09/22 02:30:46;;;;;;;13.57;7.97;;;;;;;9.20;94.08;101482.81;5037287;28;20351;-68
2021/09/22 02:33:14;;;;;;;14.43;8.38;;;;;;;9.17;94.31;101480.25;5053830;28;20327;-68
2021/09/22 02:35:41;;;;;;;17.73;7.97;;;;;;;9.10;94.39;101477.78;5036248;28;20053;-68
2021/09/22 02:38:31;;;;;;;12.32;7.85;;;;;;;9.05;94.09;101461.09;5039882;28;20060;-68
2021/09/22 02:41:00;;;;;;;16.25;7.85;;;;;;;9.14;94.29;101472.38;5053600;28;20322;-69
2021/09/22 02:43:27;;;;;;;14.80;8.40;;;;;;;9.11;94.33;101473.34;5053214;28;20049;-68
2021/09/22 02:45:54;;;;;;;15.32;8.45;;;;;;;9.00;94.65;101463.06;5053842;28;20045;-68
2021/09/22 02:48:35;;;;;;;14.07;8.25;;;;;;;8.97;95.06;101471.13;5055601;28;20106;-68
2021/09/22 02:51:03;;;;;;;15.07;8.25;;;;;;;8.95;95.47;101470.31;5053780;28;20343;-67
2021/09/22 02:53:30;;;;;;;14.95;8.40;;;;;;;8.90;95.07;101458.94;5053362;28;20041;-70
2021/09/22 02:55:57;;;;;;;18.13;8.65;;;;;;;8.90;96.06;101469.59;5033650;28;20049;-67
2021/09/22 02:58:24;;;;;;;13.23;8.52;;;;;;;8.99;95.42;101479.94;5033792;28;20076;-68
2021/09/22 03:00:57;;;;;;;11.70;8.18;;;;;;;8.98;95.35;101478.19;5021816;28;20053;-68
2021/09/22 03:03:24;;;;;;;16.58;9.55;;;;;;;8.92;95.02;101473.06;5020973;28;20132;-68
2021/09/22 03:05:51;;;;;;;16.00;8.63;;;;;;;8.94;94.93;101476.56;5037457;28;20073;-67
2021/09/22 03:08:18;;;;;;;13.45;8.25;;;;;;;8.88;95.39;101476.78;5039856;28;20075;-67
2021/09/22 03:10:45;;;;;;;13.88;8.00;;;;;;;8.83;94.86;101466.28;5057269;28;20120;-67
2021/09/22 03:13:12;;;;;;;13.73;8.38;;;;;;;8.97;94.76;101473.81;5040784;28;20053;-67
2021/09/22 03:15:39;;;;;;;12.60;8.18;;;;;;;8.88;95.08;101471.47;5040693;28;20053;-67
2021/09/22 03:18:07;;;;;;;15.77;8.13;;;;;;;8.79;95.72;101472.63;5040781;28;20083;-67
2021/09/22 03:20:34;;;;;;;11.80;7.80;;;;;;;8.85;95.48;101472.41;5056991;28;20461;-67
2021/09/22 03:23:01;;;;;;;12.13;8.25;;;;;;;8.83;95.29;101477.78;5039609;28;20032;-68
2021/09/22 03:25:32;;;;;;;10.80;7.80;;;;;;;8.86;94.73;101470.63;5050273;28;20362;-68
2021/09/22 03:28:00;;;;;;;12.88;8.43;;;;;;;8.82;94.92;101462.75;5037226;28;20136;-68
2021/09/22 03:30:27;;;;;;;13.85;8.82;;;;;;;8.85;95.08;101466.22;5020601;28;20562;-68
2021/09/22 03:33:19;;;;;;;14.15;8.13;;;;;;;8.78;95.30;101457.56;5051486;28;20045;-68
2021/09/22 03:35:47;;;;;;;12.98;8.50;;;;;;;8.77;95.44;101454.03;5053275;28;20060;-68
2021/09/22 03:38:16;;;;;;;14.23;8.85;;;;;;;8.80;95.70;101453.06;5037346;28;20064;-67
2021/09/22 03:40:46;;;;;;;19.55;9.32;;;;;;;8.73;95.85;101448.84;5037034;28;20100;-67
2021/09/22 03:43:13;;;;;;;13.65;8.73;;;;;;;8.72;95.73;101455.97;5020577;28;20073;-67
2021/09/22 03:45:41;;;;;;;15.52;8.63;;;;;;;8.71;95.44;101456.88;5056812;28;20461;-67
2021/09/22 03:48:08;;;;;;;13.15;8.80;;;;;;;8.67;95.78;101455.25;5056868;28;20071;-67
2021/09/22 03:50:37;;;;;;;18.25;9.05;;;;;;;8.62;95.83;101446.53;5056466;28;20139;-67
2021/09/22 03:53:16;;;;;;;13.13;8.90;;;;;;;8.61;95.87;101455.44;5042891;28;20152;-67
2021/09/22 03:55:45;;;;;;;12.55;8.48;;;;;;;8.58;96.26;101453.75;5056528;28;20044;-66
2021/09/22 03:58:15;;;;;;;15.25;8.70;;;;;;;8.58;96.11;101459.06;5040340;28;20053;-67
2021/09/22 04:00:42;;;;;;;15.15;9.57;;;;;;;8.50;96.11;101443.31;5056311;28;20390;-66
2021/09/22 04:03:12;;;;;;;14.50;8.07;;;;;;;8.55;96.27;101453.84;5056272;28;20048;-67
2021/09/22 04:05:40;;;;;;;19.45;9.10;;;;;;;8.56;96.46;101452.94;5056516;28;20052;-67
2021/09/22 04:08:08;;;;;;;17.08;8.70;;;;;;;8.60;96.00;101459.03;5056400;28;20049;-68
2021/09/22 04:10:39;;;;;;;14.88;8.65;;;;;;;8.60;95.78;101456.38;5056249;28;20144;-66
2021/09/22 04:13:06;;;;;;;14.82;8.48;;;;;;;8.54;95.80;101450.31;5056170;28;20350;-66
2021/09/22 04:15:40;;;;;;;17.20;8.98;;;;;;;8.52;95.91;101456.63;5055578;28;20365;-66
2021/09/22 04:18:07;;;;;;;13.10;9.30;;;;;;;8.55;95.63;101454.72;5056036;28;20047;-67
2021/09/22 04:20:34;;;;;;;14.98;8.48;;;;;;;8.53;95.74;101445.94;5056074;28;20114;-66
2021/09/22 04:23:03;;;;;;;13.80;8.68;;;;;;;8.50;95.64;101440.66;5055671;28;20041;-67
2021/09/22 04:25:30;;;;;;;12.63;8.52;;;;;;;8.52;96.07;101449.50;5056051;28;20128;-67
2021/09/22 04:28:03;;;;;;;12.13;8.80;;;;;;;8.41;96.27;101452.44;5055998;28;20080;-67
2021/09/22 04:30:49;;;;;;;19.83;8.68;;;;;;;8.38;96.50;101449.00;5056861;28;20134;-66
2021/09/22 04:33:34;;;;;;;14.05;8.63;;;;;;;8.42;96.48;101456.00;5039196;28;20119;-68
2021/09/22 04:36:20;;;;;;;14.65;8.82;;;;;;;8.35;96.58;101449.13;5056701;28;20428;-67
2021/09/22 04:39:07;;;;;;;15.25;9.30;;;;;;;8.38;96.53;101447.25;5056103;28;20175;-66
2021/09/22 04:41:52;;;;;;;17.17;9.98;;;;;;;8.33;96.90;101441.19;5057014;28;20048;-69
2021/09/22 04:44:38;;;;;;;12.25;7.97;;;;;;;8.32;96.64;101439.44;5069765;28;20442;-69
2021/09/22 04:47:24;;;;;;;14.00;8.10;;;;;;;8.33;96.58;101435.00;5056407;28;20052;-74
2021/09/22 04:50:09;;;;;;;16.38;8.70;;;;;;;8.37;nan;101452.59;5056645;28;20171;-75
2021/09/22 04:52:55;;;;;;;15.05;9.30;;;;;;;8.29;96.31;101445.72;5055790;28;20067;-74
2021/09/22 04:55:41;;;;;;;15.85;9.27;;;;;;;8.40;96.11;101450.72;5056631;28;20063;-69
2021/09/22 04:58:29;;;;;;;13.75;9.38;;;;;;;8.35;96.24;101451.78;5043699;28;20053;-69
2021/09/22 05:01:15;;;;;;;16.08;8.60;;;;;;;8.38;96.14;101446.34;5054504;28;20067;-68
2021/09/22 05:04:01;;;;;;;17.48;8.95;;;;;;;8.24;96.87;101452.97;5056088;28;20044;-70
2021/09/22 05:06:47;;;;;;;16.05;8.63;;;;;;;8.20;96.83;101454.00;5048192;28;20055;-70
2021/09/22 05:09:33;;;;;;;15.52;9.52;;;;;;;8.32;97.19;101459.88;5046734;28;20060;-70
2021/09/22 05:12:19;;;;;;;19.02;9.27;;;;;;;8.29;97.32;101461.69;5050357;28;20048;-69
2021/09/22 05:15:06;;;;;;;17.08;9.07;;;;;;;8.27;97.15;101460.88;5039234;28;20473;-70
2021/09/22 05:17:51;;;;;;;21.25;9.80;;;;;;;8.21;97.05;101468.16;5049539;28;20453;-70
2021/09/22 05:20:36;;;;;;;15.68;9.52;;;;;;;8.19;97.20;101470.88;5054545;28;20748;-70
2021/09/22 05:23:21;;;;;;;14.32;8.75;;;;;;;8.18;96.83;101474.47;5053387;28;20130;-70
2021/09/22 05:26:07;;;;;;;16.73;8.80;;;;;;;8.22;97.10;101480.56;5055664;28;20160;-70
2021/09/22 05:28:52;;;;;;;13.18;9.48;;;;;;;8.22;97.11;101476.09;5053891;28;20080;-69
2021/09/22 05:31:37;;;;;;;14.30;8.52;;;;;;;8.23;96.44;101485.81;5045803;28;20059;-70
2021/09/22 05:34:23;;;;;;;17.92;9.40;;;;;;;8.22;96.89;101488.53;5053479;28;20051;-70
2021/09/22 05:37:08;;;;;;;14.35;9.15;;;;;;;8.27;96.83;101489.25;5055561;28;20063;-69
2021/09/22 05:39:53;;;;;;;15.55;8.80;;;;;;;8.25;96.38;101486.66;5050111;28;20115;-70
2021/09/22 05:42:39;;;;;;;15.05;9.43;;;;;;;8.23;96.31;101475.16;5054464;28;20059;-69
2021/09/22 05:45:24;;;;;;;16.63;9.95;;;;;;;8.27;96.35;101481.28;5047253;28;20099;-71
2021/09/22 05:48:24;;;;;;;16.95;10.40;;;;;;;8.32;96.54;101486.47;5042979;28;20045;-75
2021/09/22 05:51:15;;;;;;;14.45;9.98;;;;;;;8.35;96.57;101483.72;5051266;28;20059;-77
2021/09/22 05:54:01;;;;;;;18.10;10.50;;;;;;;8.37;95.98;101492.50;5044362;28;20134;-72
2021/09/22 05:56:46;;;;;;;15.15;10.75;;;;;;;8.36;96.48;101489.00;5053872;28;20052;-72
2021/09/22 05:59:32;;;;;;;17.52;10.55;;;;;;;8.40;96.94;101493.28;5039261;28;20067;-73
2021/09/22 06:02:17;;;;;;;16.60;10.40;;;;;;;8.41;97.10;101504.81;5038935;28;20795;-71
2021/09/22 06:05:04;;;;;;;16.48;10.73;;;;;;;8.38;97.66;101496.91;5046827;28;20048;-70
2021/09/22 06:07:49;;;;;;;17.73;10.90;;;;;;;8.42;97.02;101486.16;5042500;28;20342;-70
2021/09/22 06:10:36;;;;;;;18.65;11.13;;;;;;;8.49;97.19;101500.13;5052449;28;20071;-68
2021/09/22 06:13:23;;;;;;;19.65;12.00;;;;;;;8.49;97.16;101499.25;5046932;28;20132;-68
2021/09/22 06:15:52;;;;;;;18.38;11.85;;;;;;;8.53;97.14;101507.13;5068183;28;20056;-68
2021/09/22 06:18:24;;;;;;;19.67;12.07;;;;;;;8.60;97.72;101506.94;5054960;28;20048;-68
2021/09/22 06:20:50;;;;;;;22.52;12.25;;;;;;;8.66;97.77;101512.06;5044084;28;20073;-68
2021/09/22 06:23:17;;;;;;;20.23;12.30;;;;;;;8.67;98.02;101505.84;5034757;28;20073;-68
2021/09/22 06:25:44;;;;;;;21.63;10.65;;;;;;;8.74;97.23;101502.06;5033902;28;20095;-68
2021/09/22 06:28:11;;;;;;;19.67;11.23;;;;;;;8.82;97.39;101507.13;5035683;28;20060;-69
2021/09/22 06:30:41;;;;;;;22.95;11.65;;;;;;;8.89;97.59;101508.66;5053175;28;20107;-69
2021/09/22 06:33:09;;;;;;;21.73;11.38;;;;;;;8.95;97.63;101512.94;5050804;28;20059;-68
2021/09/22 06:35:59;;;;;;;18.23;11.20;;;;;;;9.05;97.52;101516.16;5033788;28;20069;-68
2021/09/22 06:38:33;;;;;;;24.20;12.65;;;;;;;9.13;97.63;101518.56;5033035;28;20049;-68
2021/09/22 06:41:03;;;;;;;23.55;12.57;;;;;;;9.19;97.27;101521.03;5032999;28;20508;-68
2021/09/22 06:43:36;;;;;;;22.15;11.85;;;;;;;9.21;97.06;101517.38;5032734;28;20052;-68
2021/09/22 06:46:03;;;;;;;25.90;12.52;;;;;;;9.28;96.71;101514.53;5041733;28;20041;-68
2021/09/22 06:48:30;;;;;;;21.23;11.57;;;;;;;9.36;96.30;101521.34;5053436;28;20779;-67
2021/09/22 06:50:57;;;;;;;21.08;12.80;;;;;;;9.45;96.15;101519.28;5053550;28;20162;-67
2021/09/22 06:53:24;;;;;;;25.38;13.82;;;;;;;9.54;96.09;101523.41;5069840;28;20080;-67
2021/09/22 06:55:50;;;;;;;26.05;14.85;;;;;;;9.57;96.46;101517.97;5054439;28;20033;-67
2021/09/22 06:58:17;;;;;;;25.48;13.20;;;;;;;9.68;95.92;101514.91;5053205;28;20055;-69
2021/09/22 07:00:44;;;;;;;22.73;13.48;;;;;;;9.75;95.61;101512.00;5053461;28;20067;-67
2021/09/22 07:03:11;;;;;;;24.15;12.82;;;;;;;9.75;95.84;101495.16;5053260;28;20045;-69
2021/09/22 07:05:39;;;;;;;28.58;13.60;;;;;;;9.91;95.49;101509.66;5042154;28;20056;-68
2021/09/22 07:08:06;;;;;;;22.83;13.55;;;;;;;10.01;95.38;101507.50;5034370;28;20045;-69
2021/09/22 07:10:36;;;;;;;23.65;14.05;;;;;;;10.10;95.29;101506.31;5041285;28;20045;-69
2021/09/22 07:13:03;;;;;;;33.70;14.75;;;;;;;10.17;95.21;101513.16;5034639;28;20042;-68
2021/09/22 07:15:30;;;;;;;24.67;13.98;;;;;;;10.25;95.25;101517.31;5054435;28;20040;-69
2021/09/22 07:17:58;;;;;;;24.38;14.40;;;;;;;10.31;95.67;101509.09;5042774;28;20048;-69
2021/09/22 07:20:25;;;;;;;29.15;14.05;;;;;;;10.38;96.04;101510.59;5043619;28;20043;-69
2021/09/22 07:22:52;;;;;;;22.65;13.98;;;;;;;10.46;95.91;101526.31;5054191;28;20056;-69
2021/09/22 07:25:19;;;;;;;29.83;14.55;;;;;;;10.53;95.85;101518.97;5054170;28;20041;-69
2021/09/22 07:27:46;;;;;;;22.23;14.55;;;;;;;10.61;95.90;101516.84;5052976;28;20388;-68
2021/09/22 07:30:14;;;;;;;24.88;13.27;;;;;;;10.61;96.05;101503.50;5054139;28;20123;-68
2021/09/22 07:32:43;;;;;;;25.38;14.40;;;;;;;10.72;95.73;101506.63;5054018;28;20049;-69
2021/09/22 07:35:10;;;;;;;25.45;13.88;;;;;;;10.82;95.71;101506.25;5040242;28;20295;-69
2021/09/22 07:37:38;;;;;;;23.30;13.52;;;;;;;10.96;95.71;101508.38;5034155;28;20045;-69
2021/09/22 07:40:07;;;;;;;23.98;13.68;;;;;;;11.04;95.53;101506.25;5034150;28;20045;-68
2021/09/22 07:42:34;;;;;;;22.98;12.80;;;;;;;11.19;94.91;101511.88;5034165;28;20119;-68
2021/09/22 07:45:02;;;;;;;21.80;13.00;;;;;;;11.30;94.23;101511.41;5035318;28;20041;-68
2021/09/22 07:47:29;;;;;;;23.48;13.93;;;;;;;11.39;93.56;101514.56;5037797;28;20099;-68
2021/09/22 07:50:00;;;;;;;30.27;14.15;;;;;;;11.51;92.81;101515.84;5037758;28;20103;-68
2021/09/22 07:52:27;;;;;;;29.90;14.43;;;;;;;11.64;92.14;101513.53;5037652;28;20075;-68
2021/09/22 07:54:54;;;;;;;28.00;14.70;;;;;;;11.76;91.57;101519.28;5036362;28;20053;-69
2021/09/22 07:57:20;;;;;;;27.42;16.05;;;;;;;11.87;91.23;101514.28;5037618;28;20053;-68
2021/09/22 07:59:47;;;;;;;36.38;19.20;;;;;;;11.99;90.24;101526.25;5037296;28;20490;-67
2021/09/22 08:02:14;;;;;;;44.80;24.08;;;;;;;12.10;87.38;101512.44;5036538;28;20072;-68
2021/09/22 08:04:41;;;;;;;48.83;28.05;;;;;;;12.31;86.31;101518.59;5036168;28;20037;-67
2021/09/22 08:07:10;;;;;;;44.20;27.58;;;;;;;12.40;85.71;101513.75;5037305;28;20103;-68
2021/09/22 08:09:37;;;;;;;53.35;31.70;;;;;;;12.53;83.52;101527.44;5019736;28;20461;-67
2021/09/22 08:12:05;;;;;;;48.67;32.55;;;;;;;12.62;83.96;101522.50;5036157;28;20065;-68
2021/09/22 08:14:37;;;;;;;52.08;35.35;;;;;;;12.68;82.04;101521.34;5020332;28;20053;-68
2021/09/22 08:17:05;;;;;;;53.70;37.42;;;;;;;12.77;82.75;101520.88;5041220;28;20048;-67
2021/09/22 08:19:35;;;;;;;61.38;38.95;;;;;;;12.87;82.06;101525.81;5056890;28;20461;-70
2021/09/22 08:22:04;;;;;;;44.83;28.25;;;;;;;12.99;80.60;101537.72;5057101;28;20434;-68
2021/09/22 08:24:31;;;;;;;41.95;25.55;;;;;;;13.04;80.96;101523.16;5055907;28;20041;-68
2021/09/22 08:26:57;;;;;;;46.65;28.27;;;;;;;13.14;80.57;101517.34;5056873;28;20448;-68
2021/09/22 08:29:24;;;;;;;40.08;23.80;;;;;;;13.35;77.75;101523.41;5056745;28;20052;-69
2021/09/22 08:31:51;;;;;;;43.35;26.65;;;;;;;13.56;75.46;101517.94;5056833;28;20045;-71
2021/09/22 08:34:23;;;;;;;33.65;22.60;;;;;;;13.71;75.17;101510.91;5050936;28;20077;-68
2021/09/22 08:36:50;;;;;;;49.58;30.35;;;;;;;13.79;74.74;101523.94;5019349;28;20061;-69
2021/09/22 08:39:17;;;;;;;41.25;28.25;;;;;;;13.83;73.83;101517.44;5036732;28;20041;-69
2021/09/22 08:41:45;;;;;;;45.30;27.80;;;;;;;13.90;74.55;101518.84;5036799;28;20081;-69
2021/09/22 08:44:13;;;;;;;43.00;24.63;;;;;;;13.93;73.23;101525.84;5035545;28;20045;-69
2021/09/22 08:46:44;;;;;;;34.58;23.83;;;;;;;13.94;74.57;101523.09;5035365;28;20053;-68
2021/09/22 08:49:12;;;;;;;32.47;19.00;;;;;;;14.10;72.87;101516.91;5036513;28;20045;-68
2021/09/22 08:51:39;;;;;;;24.77;15.48;;;;;;;14.26;72.71;101522.31;5036562;28;20043;-69
2021/09/22 08:54:06;;;;;;;31.63;17.25;;;;;;;14.22;72.78;101521.59;5036517;28;20419;-70
2021/09/22 08:56:36;;;;;;;26.27;17.10;;;;;;;14.21;73.04;101516.31;5051050;28;20053;-69
2021/09/22 08:59:05;;;;;;;25.97;13.97;;;;;;;14.34;71.09;101509.31;5036294;28;20103;-70
2021/09/22 09:01:32;;;;;;;22.83;13.45;;;;;;;14.32;71.44;101505.00;5035224;28;20049;-68
2021/09/22 09:04:13;;;;;;;20.00;12.50;;;;;;;14.46;68.27;101507.78;5035012;28;20097;-67
2021/09/22 09:06:41;;;;;;;19.55;12.07;;;;;;;14.45;68.10;101510.56;5035144;28;20116;-67
2021/09/22 09:09:08;;;;;;;21.10;12.10;;;;;;;14.53;67.81;101509.16;5046684;28;20033;-67
2021/09/22 09:11:44;;;;;;;18.85;11.50;;;;;;;14.59;67.87;101509.78;5054439;28;20064;-69
2021/09/22 09:14:14;;;;;;;20.20;11.98;;;;;;;14.71;66.94;101506.38;5055958;28;20033;-69
2021/09/22 09:16:46;;;;;;;20.25;11.05;;;;;;;14.88;65.64;101501.91;5054672;28;20085;-69
2021/09/22 09:19:23;;;;;;;19.75;11.15;;;;;;;14.95;65.91;101500.59;5045254;28;20041;-68
2021/09/22 09:21:59;;;;;;;14.68;9.85;;;;;;;15.06;66.38;101500.84;5055674;28;20052;-69
2021/09/22 09:24:32;;;;;;;19.73;12.13;;;;;;;15.19;66.95;101505.47;5054497;28;20045;-69
2021/09/22 09:27:00;;;;;;;15.43;10.68;;;;;;;15.30;64.99;101499.44;5051078;28;20042;-68
2021/09/22 09:29:27;;;;;;;22.02;11.07;;;;;;;15.36;68.46;101496.41;5034579;28;20041;-69
2021/09/22 09:32:16;;;;;;;18.55;10.30;;;;;;;15.42;65.28;101509.47;5035668;28;20049;-69
2021/09/22 09:35:10;;;;;;;17.75;9.38;;;;;;;15.53;64.35;101497.22;5043291;28;20427;-71
2021/09/22 09:37:40;;;;;;;14.13;8.75;;;;;;;15.61;62.51;101501.19;5055425;28;20052;-69
2021/09/22 09:40:25;;;;;;;15.48;9.50;;;;;;;15.64;61.61;101504.63;5055523;28;20049;-69
2021/09/22 09:42:57;;;;;;;17.20;9.63;;;;;;;15.70;62.88;101501.56;5054330;28;20080;-69
2021/09/22 09:45:30;;;;;;;19.10;10.50;;;;;;;15.70;61.84;101506.94;5054910;28;20373;-69
2021/09/22 09:48:06;;;;;;;15.40;9.85;;;;;;;15.84;60.54;101506.97;5055241;28;20053;-69
2021/09/22 09:50:42;;;;;;;15.45;9.63;;;;;;;15.86;63.26;101505.03;5055228;28;20045;-69
2021/09/22 09:53:21;;;;;;;16.55;10.13;;;;;;;15.87;60.75;101506.75;5063991;28;20409;-69
2021/09/22 09:55:48;;;;;;;15.82;10.70;;;;;;;15.98;60.38;101506.16;5055125;28;20068;-69
2021/09/22 09:58:15;;;;;;;18.90;10.95;;;;;;;16.01;61.63;101499.69;5054358;28;20045;-69
2021/09/22 10:00:41;;;;;;;17.02;11.10;;;;;;;16.04;61.35;101493.25;5053396;28;20115;-69
2021/09/22 10:03:12;;;;;;;15.57;10.35;;;;;;;16.01;61.78;101488.91;5053427;28;20128;-69
2021/09/22 10:05:39;;;;;;;18.95;11.48;;;;;;;16.08;60.26;101489.41;5053353;28;20090;-69
2021/09/22 10:08:09;;;;;;;17.65;11.00;;;;;;;16.10;60.35;101488.34;5053816;28;20072;-69
2021/09/22 10:10:36;;;;;;;16.08;10.32;;;;;;;16.15;60.07;101488.94;5052773;28;20053;-69
2021/09/22 10:13:03;;;;;;;16.92;10.23;;;;;;;16.18;59.53;101473.53;5054355;28;20041;-69
2021/09/22 10:15:33;;;;;;;19.60;11.05;;;;;;;16.29;61.70;101473.72;5053438;28;20045;-69
2021/09/22 10:18:01;;;;;;;15.98;9.52;;;;;;;16.39;60.63;101473.94;5018032;28;20322;-69
2021/09/22 10:20:28;;;;;;;25.50;10.32;;;;;;;16.50;60.78;101473.28;5035476;28;20335;-72
2021/09/22 10:23:14;;;;;;;18.77;10.23;;;;;;;16.72;58.70;101463.78;5046465;28;20052;-71
2021/09/22 10:25:42;;;;;;;15.50;10.07;;;;;;;16.91;57.86;101458.00;5041416;28;20061;-71
2021/09/22 10:28:09;;;;;;;24.85;9.13;;;;;;;16.99;59.31;101465.59;5049843;28;20099;-77
2021/09/22 10:30:44;;;;;;;19.75;11.48;;;;;;;17.10;55.70;101457.66;5035878;28;20160;-78
2021/09/22 10:33:29;;;;;;;20.98;9.43;;;;;;;17.14;57.27;101461.88;5062066;28;20098;-78
2021/09/22 10:36:01;;;;;;;17.50;9.57;;;;;;;17.27;56.87;101461.06;5042958;28;20475;-78
2021/09/22 10:38:28;;;;;;;16.30;9.30;;;;;;;17.42;57.24;101451.88;5049878;28;20057;-71
2021/09/22 10:40:57;;;;;;;18.98;8.15;;;;;;;17.54;55.42;101458.25;5061011;28;20430;-71
2021/09/22 10:43:29;;;;;;;15.65;8.20;;;;;;;17.68;56.36;101454.59;5045879;28;20041;-73
2021/09/22 10:46:13;;;;;;;15.20;9.23;;;;;;;17.88;54.22;101452.31;5052889;28;20041;-75
2021/09/22 10:48:41;;;;;;;18.75;10.23;;;;;;;17.87;55.21;101450.59;5051625;28;20080;-72
2021/09/22 10:51:10;;;;;;;17.00;9.80;;;;;;;17.91;53.83;101452.97;5054550;28;20394;-72
2021/09/22 10:53:42;;;;;;;13.90;8.57;;;;;;;17.99;55.45;101451.53;5053970;28;20460;-73
2021/09/22 10:56:13;;;;;;;11.85;7.82;;;;;;;18.05;54.91;101441.19;5053379;28;20041;-72
2021/09/22 10:58:50;;;;;;;15.38;7.50;;;;;;;18.20;54.83;101441.06;5045100;28;20041;-72
2021/09/22 11:01:32;;;;;;;16.80;7.38;;;;;;;18.24;53.95;101437.13;5050042;28;20045;-70
2021/09/22 11:04:02;;;;;;;15.00;8.25;;;;;;;18.27;54.26;101439.63;5046354;28;20469;-72
2021/09/22 11:06:48;;;;;;;10.50;6.95;;;;;;;18.39;55.16;101431.56;5054483;28;20056;-71
2021/09/22 11:09:18;;;;;;;13.60;7.88;;;;;;;18.48;55.96;101433.63;5054830;28;20045;-71
2021/09/22 11:11:58;;;;;;;16.20;8.57;;;;;;;18.48;53.59;101430.91;5047773;28;20045;-68
2021/09/22 11:14:31;;;;;;;;;;;;;;;18.31;53.64;101418.66;5036010;28;20435;-69
2021/09/22 11:17:02;;;;;;;13.43;8.70;;;;;;;18.36;54.66;101419.16;5034452;28;19925;-69
2021/09/22 11:19:29;;;;;;;;;;;;;;;18.29;53.79;101413.34;5035296;28;20350;-68
2021/09/22 11:21:57;;;;;;;12.13;6.75;;;;;;;18.38;54.45;101410.94;5044426;28;19924;-68
2021/09/22 11:24:28;;;;;;;13.23;8.00;;;;;;;18.43;53.13;101408.75;5055656;28;20052;-68
2021/09/22 11:26:57;;;;;;;13.68;8.07;;;;;;;18.54;53.17;101414.22;5049057;28;20335;-68
2021/09/22 11:29:36;;;;;;;17.95;8.80;;;;;;;18.57;53.88;101411.28;5042461;28;20460;-68
2021/09/22 11:32:22;;;;;;;10.88;7.65;;;;;;;18.61;52.98;101400.25;5037915;28;20152;-68
2021/09/22 11:34:49;;;;;;;14.18;7.38;;;;;;;18.82;52.60;101404.03;5053891;28;20049;-68
2021/09/22 11:37:16;;;;;;;17.50;7.60;;;;;;;18.89;52.51;101403.56;5040091;28;20053;-68
2021/09/22 11:39:43;;;;;;;10.68;6.72;;;;;;;19.05;53.57;101396.00;5057439;28;20100;-68
2021/09/22 11:42:11;;;;;;;14.85;7.38;;;;;;;19.18;52.67;101378.81;5054922;28;20094;-68